sensor_id;sensor_type;location;lat;lon;timestamp;P1;durP1;ratioP1;P2;durP2;ratioP2
1380;SDS011;684;48.342;10.096;2023-07-28T00:02:03;6.23;;;3.97;;
1380;SDS011;684;48.342;10.096;2023-07-28T00:04:30;6.83;;;4.50;;
1380;SDS011;684;48.342;10.096;2023-07-28T00:06:57;9.13;;;5.20;;
1380;SDS011;684;48.342;10.096;2023-07-28T00:09:24;7.87;;;4.67;;
1380;SDS011;684;48.342;10.096;2023-07-28T00:11:51;6.67;;;4.47;;
1380;SDS011;684;48.342;10.096;2023-07-28T00:14:17;9.23;;;5.17;;
1380;SDS011;684;48.342;10.096;2023-07-28T00:16:46;6.23;;;4.33;;
1380;SDS011;684;48.342;10.096;2023-07-28T00:19:12;7.90;;;4.33;;
1380;SDS011;684;48.342;10.096;2023-07-28T00:21:39;7.23;;;4.13;;
1380;SDS011;684;48.342;10.096;2023-07-28T00:24:06;8.80;;;5.07;;
1380;SDS011;684;48.342;10.096;2023-07-28T00:26:32;7.40;;;4.50;;
1380;SDS011;684;48.342;10.096;2023-07-28T00:28:59;7.40;;;5.10;;
1380;SDS011;684;48.342;10.096;2023-07-28T00:31:26;7.47;;;4.10;;
1380;SDS011;684;48.342;10.096;2023-07-28T00:33:54;7.13;;;4.70;;
1380;SDS011;684;48.342;10.096;2023-07-28T00:36:20;6.57;;;4.67;;
1380;SDS011;684;48.342;10.096;2023-07-28T00:38:47;7.67;;;4.20;;
1380;SDS011;684;48.342;10.096;2023-07-28T00:41:14;10.43;;;5.33;;
1380;SDS011;684;48.342;10.096;2023-07-28T00:43:41;7.93;;;5.27;;
1380;SDS011;684;48.342;10.096;2023-07-28T00:46:07;7.60;;;4.83;;
1380;SDS011;684;48.342;10.096;2023-07-28T00:48:35;7.73;;;4.90;;
1380;SDS011;684;48.342;10.096;2023-07-28T00:51:03;9.60;;;5.63;;
1380;SDS011;684;48.342;10.096;2023-07-28T00:53:31;6.80;;;4.93;;
1380;SDS011;684;48.342;10.096;2023-07-28T00:55:59;8.67;;;5.10;;
1380;SDS011;684;48.342;10.096;2023-07-28T00:58:26;7.57;;;4.30;;
1380;SDS011;684;48.342;10.096;2023-07-28T01:00:53;6.90;;;4.63;;
1380;SDS011;684;48.342;10.096;2023-07-28T01:03:20;6.50;;;4.70;;
1380;SDS011;684;48.342;10.096;2023-07-28T01:05:49;7.33;;;4.80;;
1380;SDS011;684;48.342;10.096;2023-07-28T01:08:27;7.80;;;4.80;;
1380;SDS011;684;48.342;10.096;2023-07-28T01:10:58;8.40;;;4.80;;
1380;SDS011;684;48.342;10.096;2023-07-28T01:13:25;9.20;;;5.40;;
1380;SDS011;684;48.342;10.096;2023-07-28T01:15:53;8.77;;;4.63;;
1380;SDS011;684;48.342;10.096;2023-07-28T01:18:19;7.93;;;5.50;;
1380;SDS011;684;48.342;10.096;2023-07-28T01:20:46;7.90;;;5.10;;
1380;SDS011;684;48.342;10.096;2023-07-28T01:23:20;7.83;;;4.70;;
1380;SDS011;684;48.342;10.096;2023-07-28T01:25:59;7.67;;;5.57;;
1380;SDS011;684;48.342;10.096;2023-07-28T01:28:33;7.93;;;5.10;;
1380;SDS011;684;48.342;10.096;2023-07-28T01:31:01;9.70;;;4.93;;
1380;SDS011;684;48.342;10.096;2023-07-28T01:33:28;8.07;;;5.90;;
1380;SDS011;684;48.342;10.096;2023-07-28T01:35:55;7.80;;;5.13;;
1380;SDS011;684;48.342;10.096;2023-07-28T01:38:23;7.00;;;5.10;;
1380;SDS011;684;48.342;10.096;2023-07-28T01:40:50;7.73;;;5.00;;
1380;SDS011;684;48.342;10.096;2023-07-28T01:43:16;8.27;;;4.13;;
1380;SDS011;684;48.342;10.096;2023-07-28T01:45:45;9.10;;;5.90;;
1380;SDS011;684;48.342;10.096;2023-07-28T01:48:11;7.73;;;5.50;;
1380;SDS011;684;48.342;10.096;2023-07-28T01:50:38;8.00;;;4.90;;
1380;SDS011;684;48.342;10.096;2023-07-28T01:53:05;7.60;;;5.27;;
1380;SDS011;684;48.342;10.096;2023-07-28T01:55:32;8.40;;;5.40;;
1380;SDS011;684;48.342;10.096;2023-07-28T01:58:00;7.67;;;5.07;;
1380;SDS011;684;48.342;10.096;2023-07-28T02:00:27;7.93;;;4.63;;
1380;SDS011;684;48.342;10.096;2023-07-28T02:02:55;12.00;;;5.43;;
1380;SDS011;684;48.342;10.096;2023-07-28T02:05:23;7.70;;;5.17;;
1380;SDS011;684;48.342;10.096;2023-07-28T02:07:50;5.90;;;4.30;;
1380;SDS011;684;48.342;10.096;2023-07-28T02:10:17;12.70;;;5.30;;
1380;SDS011;684;48.342;10.096;2023-07-28T02:12:44;9.13;;;4.40;;
1380;SDS011;684;48.342;10.096;2023-07-28T02:15:11;10.43;;;5.40;;
1380;SDS011;684;48.342;10.096;2023-07-28T02:17:38;9.00;;;4.70;;
1380;SDS011;684;48.342;10.096;2023-07-28T02:20:07;8.17;;;5.27;;
1380;SDS011;684;48.342;10.096;2023-07-28T02:22:35;8.67;;;4.70;;
1380;SDS011;684;48.342;10.096;2023-07-28T02:25:02;7.73;;;4.97;;
1380;SDS011;684;48.342;10.096;2023-07-28T02:27:29;9.80;;;4.50;;
1380;SDS011;684;48.342;10.096;2023-07-28T02:29:56;7.80;;;4.80;;
1380;SDS011;684;48.342;10.096;2023-07-28T02:32:23;8.20;;;5.37;;
1380;SDS011;684;48.342;10.096;2023-07-28T02:34:50;7.50;;;4.60;;
1380;SDS011;684;48.342;10.096;2023-07-28T02:37:18;7.83;;;4.77;;
1380;SDS011;684;48.342;10.096;2023-07-28T02:39:44;10.20;;;5.33;;
1380;SDS011;684;48.342;10.096;2023-07-28T02:42:11;8.80;;;5.43;;
1380;SDS011;684;48.342;10.096;2023-07-28T02:44:38;8.53;;;4.90;;
1380;SDS011;684;48.342;10.096;2023-07-28T02:47:05;7.00;;;4.30;;
1380;SDS011;684;48.342;10.096;2023-07-28T02:49:32;8.77;;;5.20;;
1380;SDS011;684;48.342;10.096;2023-07-28T02:51:59;7.13;;;5.00;;
1380;SDS011;684;48.342;10.096;2023-07-28T02:54:29;9.10;;;5.03;;
1380;SDS011;684;48.342;10.096;2023-07-28T02:56:56;10.60;;;4.53;;
1380;SDS011;684;48.342;10.096;2023-07-28T02:59:22;10.80;;;5.20;;
1380;SDS011;684;48.342;10.096;2023-07-28T03:01:49;7.13;;;4.83;;
1380;SDS011;684;48.342;10.096;2023-07-28T03:04:17;9.50;;;5.40;;
1380;SDS011;684;48.342;10.096;2023-07-28T03:06:45;6.90;;;4.37;;
1380;SDS011;684;48.342;10.096;2023-07-28T03:09:11;9.03;;;5.10;;
1380;SDS011;684;48.342;10.096;2023-07-28T03:11:40;8.27;;;4.90;;
1380;SDS011;684;48.342;10.096;2023-07-28T03:14:07;9.27;;;5.03;;
1380;SDS011;684;48.342;10.096;2023-07-28T03:16:34;7.83;;;5.40;;
1380;SDS011;684;48.342;10.096;2023-07-28T03:19:00;8.50;;;5.63;;
1380;SDS011;684;48.342;10.096;2023-07-28T03:21:29;7.63;;;5.87;;
1380;SDS011;684;48.342;10.096;2023-07-28T03:23:55;9.13;;;5.77;;
1380;SDS011;684;48.342;10.096;2023-07-28T03:26:22;8.67;;;5.17;;
1380;SDS011;684;48.342;10.096;2023-07-28T03:28:50;10.43;;;6.17;;
1380;SDS011;684;48.342;10.096;2023-07-28T03:31:17;7.20;;;4.73;;
1380;SDS011;684;48.342;10.096;2023-07-28T03:33:43;8.20;;;5.70;;
1380;SDS011;684;48.342;10.096;2023-07-28T03:36:10;8.00;;;5.63;;
1380;SDS011;684;48.342;10.096;2023-07-28T03:38:37;9.93;;;5.47;;
1380;SDS011;684;48.342;10.096;2023-07-28T03:41:03;12.67;;;5.33;;
1380;SDS011;684;48.342;10.096;2023-07-28T03:43:32;9.50;;;5.23;;
1380;SDS011;684;48.342;10.096;2023-07-28T03:46:00;7.63;;;5.80;;
1380;SDS011;684;48.342;10.096;2023-07-28T03:48:26;8.47;;;5.23;;
1380;SDS011;684;48.342;10.096;2023-07-28T03:50:53;9.00;;;5.70;;
1380;SDS011;684;48.342;10.096;2023-07-28T03:53:20;7.90;;;5.30;;
1380;SDS011;684;48.342;10.096;2023-07-28T03:55:47;7.63;;;5.10;;
1380;SDS011;684;48.342;10.096;2023-07-28T03:58:14;8.80;;;5.30;;
1380;SDS011;684;48.342;10.096;2023-07-28T04:00:41;8.60;;;5.83;;
1380;SDS011;684;48.342;10.096;2023-07-28T04:03:09;8.90;;;5.43;;
1380;SDS011;684;48.342;10.096;2023-07-28T04:05:36;9.70;;;5.83;;
1380;SDS011;684;48.342;10.096;2023-07-28T04:08:03;9.37;;;6.10;;
1380;SDS011;684;48.342;10.096;2023-07-28T04:10:30;7.87;;;5.63;;
1380;SDS011;684;48.342;10.096;2023-07-28T04:12:56;7.73;;;5.30;;
1380;SDS011;684;48.342;10.096;2023-07-28T04:15:23;9.73;;;5.87;;
1380;SDS011;684;48.342;10.096;2023-07-28T04:17:50;7.90;;;5.77;;
1380;SDS011;684;48.342;10.096;2023-07-28T04:20:18;13.67;;;5.93;;
1380;SDS011;684;48.342;10.096;2023-07-28T04:22:44;9.00;;;5.20;;
1380;SDS011;684;48.342;10.096;2023-07-28T04:25:13;7.63;;;5.60;;
1380;SDS011;684;48.342;10.096;2023-07-28T04:27:39;8.50;;;5.10;;
1380;SDS011;684;48.342;10.096;2023-07-28T04:30:06;7.50;;;4.93;;
1380;SDS011;684;48.342;10.096;2023-07-28T04:32:33;8.03;;;4.87;;
1380;SDS011;684;48.342;10.096;2023-07-28T04:35:00;6.70;;;4.57;;
1380;SDS011;684;48.342;10.096;2023-07-28T04:37:28;8.60;;;4.87;;
1380;SDS011;684;48.342;10.096;2023-07-28T04:39:55;7.20;;;5.50;;
1380;SDS011;684;48.342;10.096;2023-07-28T04:42:21;9.00;;;5.47;;
1380;SDS011;684;48.342;10.096;2023-07-28T04:44:48;8.17;;;5.57;;
1380;SDS011;684;48.342;10.096;2023-07-28T04:47:15;7.90;;;5.57;;
1380;SDS011;684;48.342;10.096;2023-07-28T04:49:42;9.70;;;5.70;;
1380;SDS011;684;48.342;10.096;2023-07-28T04:52:08;8.67;;;5.53;;
1380;SDS011;684;48.342;10.096;2023-07-28T04:54:37;7.40;;;4.90;;
1380;SDS011;684;48.342;10.096;2023-07-28T04:57:03;7.60;;;4.40;;
1380;SDS011;684;48.342;10.096;2023-07-28T04:59:30;7.20;;;5.07;;
1380;SDS011;684;48.342;10.096;2023-07-28T05:01:57;8.17;;;5.17;;
1380;SDS011;684;48.342;10.096;2023-07-28T05:04:24;8.20;;;5.50;;
1380;SDS011;684;48.342;10.096;2023-07-28T05:06:51;8.00;;;5.20;;
1380;SDS011;684;48.342;10.096;2023-07-28T05:09:17;9.13;;;4.63;;
1380;SDS011;684;48.342;10.096;2023-07-28T05:11:45;10.60;;;4.33;;
1380;SDS011;684;48.342;10.096;2023-07-28T05:14:12;6.87;;;3.67;;
1380;SDS011;684;48.342;10.096;2023-07-28T05:16:39;6.50;;;4.77;;
1380;SDS011;684;48.342;10.096;2023-07-28T05:19:06;6.13;;;3.57;;
1380;SDS011;684;48.342;10.096;2023-07-28T05:21:33;6.30;;;3.43;;
1380;SDS011;684;48.342;10.096;2023-07-28T05:24:00;5.57;;;3.43;;
1380;SDS011;684;48.342;10.096;2023-07-28T05:26:26;7.30;;;4.17;;
1380;SDS011;684;48.342;10.096;2023-07-28T05:28:54;6.27;;;3.60;;
1380;SDS011;684;48.342;10.096;2023-07-28T05:31:21;6.87;;;3.73;;
1380;SDS011;684;48.342;10.096;2023-07-28T05:33:48;6.10;;;3.60;;
1380;SDS011;684;48.342;10.096;2023-07-28T05:36:15;5.70;;;4.03;;
1380;SDS011;684;48.342;10.096;2023-07-28T05:38:42;5.13;;;3.03;;
1380;SDS011;684;48.342;10.096;2023-07-28T05:41:08;7.60;;;3.13;;
1380;SDS011;684;48.342;10.096;2023-07-28T05:43:35;6.50;;;3.50;;
1380;SDS011;684;48.342;10.096;2023-07-28T05:46:03;5.63;;;3.40;;
1380;SDS011;684;48.342;10.096;2023-07-28T05:48:30;4.50;;;2.80;;
1380;SDS011;684;48.342;10.096;2023-07-28T05:50:57;4.70;;;2.63;;
1380;SDS011;684;48.342;10.096;2023-07-28T05:53:23;4.40;;;2.87;;
1380;SDS011;684;48.342;10.096;2023-07-28T05:55:50;5.60;;;2.97;;
1380;SDS011;684;48.342;10.096;2023-07-28T05:58:17;4.33;;;2.60;;
1380;SDS011;684;48.342;10.096;2023-07-28T06:00:43;5.03;;;2.83;;
1380;SDS011;684;48.342;10.096;2023-07-28T06:03:11;5.40;;;3.00;;
1380;SDS011;684;48.342;10.096;2023-07-28T06:05:38;5.97;;;2.57;;
1380;SDS011;684;48.342;10.096;2023-07-28T06:08:06;7.63;;;3.23;;
1380;SDS011;684;48.342;10.096;2023-07-28T06:10:33;5.43;;;3.03;;
1380;SDS011;684;48.342;10.096;2023-07-28T06:13:01;7.23;;;2.90;;
1380;SDS011;684;48.342;10.096;2023-07-28T06:15:27;6.10;;;3.40;;
1380;SDS011;684;48.342;10.096;2023-07-28T06:17:54;5.87;;;3.00;;
1380;SDS011;684;48.342;10.096;2023-07-28T06:20:22;5.30;;;3.00;;
1380;SDS011;684;48.342;10.096;2023-07-28T06:22:49;5.53;;;3.03;;
1380;SDS011;684;48.342;10.096;2023-07-28T06:25:16;6.10;;;3.03;;
1380;SDS011;684;48.342;10.096;2023-07-28T06:27:43;5.10;;;3.17;;
1380;SDS011;684;48.342;10.096;2023-07-28T06:30:10;5.20;;;2.87;;
1380;SDS011;684;48.342;10.096;2023-07-28T06:32:37;8.43;;;3.30;;
1380;SDS011;684;48.342;10.096;2023-07-28T06:35:04;7.43;;;3.13;;
1380;SDS011;684;48.342;10.096;2023-07-28T06:37:35;6.23;;;3.03;;
1380;SDS011;684;48.342;10.096;2023-07-28T06:40:03;6.23;;;3.50;;
1380;SDS011;684;48.342;10.096;2023-07-28T06:42:32;5.17;;;3.10;;
1380;SDS011;684;48.342;10.096;2023-07-28T06:44:59;6.33;;;3.60;;
1380;SDS011;684;48.342;10.096;2023-07-28T06:47:26;6.00;;;3.20;;
1380;SDS011;684;48.342;10.096;2023-07-28T06:49:53;7.00;;;3.40;;
1380;SDS011;684;48.342;10.096;2023-07-28T06:52:20;8.03;;;3.27;;
1380;SDS011;684;48.342;10.096;2023-07-28T06:54:48;5.80;;;3.40;;
1380;SDS011;684;48.342;10.096;2023-07-28T06:57:15;6.10;;;3.27;;
1380;SDS011;684;48.342;10.096;2023-07-28T06:59:41;5.90;;;3.30;;
1380;SDS011;684;48.342;10.096;2023-07-28T07:02:08;5.67;;;3.30;;
1380;SDS011;684;48.342;10.096;2023-07-28T07:04:35;6.40;;;3.53;;
1380;SDS011;684;48.342;10.096;2023-07-28T07:07:02;5.30;;;3.17;;
1380;SDS011;684;48.342;10.096;2023-07-28T07:09:28;7.20;;;3.10;;
1380;SDS011;684;48.342;10.096;2023-07-28T07:11:57;6.60;;;2.70;;
1380;SDS011;684;48.342;10.096;2023-07-28T07:14:23;5.30;;;2.80;;
1380;SDS011;684;48.342;10.096;2023-07-28T07:16:50;5.10;;;2.70;;
1380;SDS011;684;48.342;10.096;2023-07-28T07:19:17;5.57;;;2.80;;
1380;SDS011;684;48.342;10.096;2023-07-28T07:21:44;6.23;;;3.30;;
1380;SDS011;684;48.342;10.096;2023-07-28T07:24:12;7.77;;;3.03;;
1380;SDS011;684;48.342;10.096;2023-07-28T07:26:39;6.13;;;3.20;;
1380;SDS011;684;48.342;10.096;2023-07-28T07:29:07;7.13;;;3.30;;
1380;SDS011;684;48.342;10.096;2023-07-28T07:31:35;6.10;;;3.67;;
1380;SDS011;684;48.342;10.096;2023-07-28T07:34:01;5.67;;;3.00;;
1380;SDS011;684;48.342;10.096;2023-07-28T07:36:29;7.70;;;3.57;;
1380;SDS011;684;48.342;10.096;2023-07-28T07:38:56;6.17;;;3.77;;
1380;SDS011;684;48.342;10.096;2023-07-28T07:41:23;6.03;;;3.50;;
1380;SDS011;684;48.342;10.096;2023-07-28T07:43:52;6.03;;;2.97;;
1380;SDS011;684;48.342;10.096;2023-07-28T07:46:21;5.30;;;3.30;;
1380;SDS011;684;48.342;10.096;2023-07-28T07:48:48;5.17;;;3.40;;
1380;SDS011;684;48.342;10.096;2023-07-28T07:51:16;7.20;;;3.60;;
1380;SDS011;684;48.342;10.096;2023-07-28T07:53:43;6.77;;;3.30;;
1380;SDS011;684;48.342;10.096;2023-07-28T07:56:10;8.63;;;3.53;;
1380;SDS011;684;48.342;10.096;2023-07-28T07:58:37;8.50;;;3.33;;
1380;SDS011;684;48.342;10.096;2023-07-28T08:01:04;5.87;;;3.70;;
1380;SDS011;684;48.342;10.096;2023-07-28T08:03:32;6.63;;;3.70;;
1380;SDS011;684;48.342;10.096;2023-07-28T08:06:01;10.77;;;3.80;;
1380;SDS011;684;48.342;10.096;2023-07-28T08:08:27;5.27;;;3.47;;
1380;SDS011;684;48.342;10.096;2023-07-28T08:10:55;11.03;;;3.23;;
1380;SDS011;684;48.342;10.096;2023-07-28T08:13:22;7.17;;;3.30;;
1380;SDS011;684;48.342;10.096;2023-07-28T08:15:48;7.23;;;3.70;;
1380;SDS011;684;48.342;10.096;2023-07-28T08:18:15;6.30;;;3.40;;
1380;SDS011;684;48.342;10.096;2023-07-28T08:20:43;5.13;;;3.30;;
1380;SDS011;684;48.342;10.096;2023-07-28T08:23:10;7.50;;;4.00;;
1380;SDS011;684;48.342;10.096;2023-07-28T08:25:37;6.13;;;3.43;;
1380;SDS011;684;48.342;10.096;2023-07-28T08:28:04;5.57;;;3.07;;
1380;SDS011;684;48.342;10.096;2023-07-28T08:30:30;6.30;;;3.60;;
1380;SDS011;684;48.342;10.096;2023-07-28T08:32:57;6.20;;;3.30;;
1380;SDS011;684;48.342;10.096;2023-07-28T08:35:24;6.80;;;3.90;;
1380;SDS011;684;48.342;10.096;2023-07-28T08:37:52;7.00;;;3.90;;
1380;SDS011;684;48.342;10.096;2023-07-28T08:40:19;6.77;;;3.60;;
1380;SDS011;684;48.342;10.096;2023-07-28T08:42:46;6.43;;;3.07;;
1380;SDS011;684;48.342;10.096;2023-07-28T08:45:14;6.53;;;3.80;;
1380;SDS011;684;48.342;10.096;2023-07-28T08:47:41;7.90;;;3.50;;
1380;SDS011;684;48.342;10.096;2023-07-28T08:50:09;5.63;;;3.60;;
1380;SDS011;684;48.342;10.096;2023-07-28T08:52:36;8.57;;;3.60;;
1380;SDS011;684;48.342;10.096;2023-07-28T08:55:04;6.73;;;3.63;;
1380;SDS011;684;48.342;10.096;2023-07-28T08:57:31;7.53;;;3.50;;
1380;SDS011;684;48.342;10.096;2023-07-28T08:59:58;5.77;;;3.20;;
1380;SDS011;684;48.342;10.096;2023-07-28T09:02:25;4.60;;;2.83;;
1380;SDS011;684;48.342;10.096;2023-07-28T09:04:51;7.87;;;3.30;;
1380;SDS011;684;48.342;10.096;2023-07-28T09:07:18;6.47;;;3.10;;
1380;SDS011;684;48.342;10.096;2023-07-28T09:09:46;5.07;;;2.60;;
1380;SDS011;684;48.342;10.096;2023-07-28T09:12:15;4.80;;;2.10;;
1380;SDS011;684;48.342;10.096;2023-07-28T09:14:41;4.30;;;2.43;;
1380;SDS011;684;48.342;10.096;2023-07-28T09:17:08;5.83;;;2.33;;
1380;SDS011;684;48.342;10.096;2023-07-28T09:19:49;4.50;;;2.50;;
1380;SDS011;684;48.342;10.096;2023-07-28T09:22:17;4.43;;;2.37;;
1380;SDS011;684;48.342;10.096;2023-07-28T09:24:45;7.73;;;3.03;;
1380;SDS011;684;48.342;10.096;2023-07-28T09:27:20;5.10;;;2.27;;
1380;SDS011;684;48.342;10.096;2023-07-28T09:29:48;4.37;;;2.50;;
1380;SDS011;684;48.342;10.096;2023-07-28T09:32:15;6.93;;;2.90;;
1380;SDS011;684;48.342;10.096;2023-07-28T09:34:43;4.73;;;2.70;;
1380;SDS011;684;48.342;10.096;2023-07-28T09:37:09;5.27;;;2.70;;
1380;SDS011;684;48.342;10.096;2023-07-28T09:39:37;4.53;;;2.53;;
1380;SDS011;684;48.342;10.096;2023-07-28T09:42:06;5.20;;;2.50;;
1380;SDS011;684;48.342;10.096;2023-07-28T09:44:36;5.80;;;2.80;;
1380;SDS011;684;48.342;10.096;2023-07-28T09:47:03;5.63;;;3.20;;
1380;SDS011;684;48.342;10.096;2023-07-28T09:49:34;6.97;;;2.60;;
1380;SDS011;684;48.342;10.096;2023-07-28T09:52:03;4.73;;;2.43;;
1380;SDS011;684;48.342;10.096;2023-07-28T09:54:33;4.90;;;2.30;;
1380;SDS011;684;48.342;10.096;2023-07-28T09:57:05;6.00;;;2.67;;
1380;SDS011;684;48.342;10.096;2023-07-28T09:59:40;6.33;;;2.87;;
1380;SDS011;684;48.342;10.096;2023-07-28T10:02:07;5.10;;;2.70;;
1380;SDS011;684;48.342;10.096;2023-07-28T10:04:35;5.00;;;2.77;;
1380;SDS011;684;48.342;10.096;2023-07-28T10:07:02;4.47;;;3.10;;
1380;SDS011;684;48.342;10.096;2023-07-28T10:09:31;5.37;;;2.47;;
1380;SDS011;684;48.342;10.096;2023-07-28T10:11:59;4.50;;;2.30;;
1380;SDS011;684;48.342;10.096;2023-07-28T10:14:28;4.47;;;2.70;;
1380;SDS011;684;48.342;10.096;2023-07-28T10:16:58;4.30;;;2.50;;
1380;SDS011;684;48.342;10.096;2023-07-28T10:19:26;6.20;;;3.10;;
1380;SDS011;684;48.342;10.096;2023-07-28T10:21:59;5.77;;;2.80;;
1380;SDS011;684;48.342;10.096;2023-07-28T10:27:25;5.50;;;2.70;;
1380;SDS011;684;48.342;10.096;2023-07-28T10:29:58;4.37;;;2.37;;
1380;SDS011;684;48.342;10.096;2023-07-28T10:32:27;7.93;;;2.97;;
1380;SDS011;684;48.342;10.096;2023-07-28T10:35:01;9.87;;;3.70;;
1380;SDS011;684;48.342;10.096;2023-07-28T10:37:32;7.67;;;2.73;;
1380;SDS011;684;48.342;10.096;2023-07-28T10:40:21;8.30;;;3.27;;
1380;SDS011;684;48.342;10.096;2023-07-28T10:42:49;5.53;;;3.00;;
1380;SDS011;684;48.342;10.096;2023-07-28T10:45:17;4.13;;;2.50;;
1380;SDS011;684;48.342;10.096;2023-07-28T10:47:45;5.10;;;3.17;;
1380;SDS011;684;48.342;10.096;2023-07-28T10:50:13;6.00;;;2.73;;
1380;SDS011;684;48.342;10.096;2023-07-28T10:52:40;5.77;;;3.03;;
1380;SDS011;684;48.342;10.096;2023-07-28T10:55:11;7.37;;;3.10;;
1380;SDS011;684;48.342;10.096;2023-07-28T10:57:40;4.20;;;2.53;;
1380;SDS011;684;48.342;10.096;2023-07-28T11:00:08;5.40;;;3.20;;
1380;SDS011;684;48.342;10.096;2023-07-28T11:02:37;4.70;;;2.63;;
1380;SDS011;684;48.342;10.096;2023-07-28T11:05:09;4.70;;;2.73;;
1380;SDS011;684;48.342;10.096;2023-07-28T11:07:37;4.40;;;2.53;;
1380;SDS011;684;48.342;10.096;2023-07-28T11:10:04;4.80;;;2.80;;
1380;SDS011;684;48.342;10.096;2023-07-28T11:12:32;4.70;;;2.80;;
1380;SDS011;684;48.342;10.096;2023-07-28T11:14:59;4.93;;;2.83;;
1380;SDS011;684;48.342;10.096;2023-07-28T11:17:26;4.70;;;2.80;;
1380;SDS011;684;48.342;10.096;2023-07-28T11:19:52;5.40;;;2.90;;
1380;SDS011;684;48.342;10.096;2023-07-28T11:22:21;5.40;;;3.00;;
1380;SDS011;684;48.342;10.096;2023-07-28T11:24:50;6.60;;;2.90;;
1380;SDS011;684;48.342;10.096;2023-07-28T11:27:17;6.20;;;2.90;;
1380;SDS011;684;48.342;10.096;2023-07-28T11:29:44;5.43;;;2.83;;
1380;SDS011;684;48.342;10.096;2023-07-28T11:32:11;5.03;;;2.53;;
1380;SDS011;684;48.342;10.096;2023-07-28T11:34:41;4.47;;;2.83;;
1380;SDS011;684;48.342;10.096;2023-07-28T11:37:09;6.50;;;3.10;;
1380;SDS011;684;48.342;10.096;2023-07-28T11:39:38;5.10;;;3.20;;
1380;SDS011;684;48.342;10.096;2023-07-28T11:42:06;6.43;;;2.30;;
1380;SDS011;684;48.342;10.096;2023-07-28T11:44:35;5.17;;;3.13;;
1380;SDS011;684;48.342;10.096;2023-07-28T11:47:04;4.70;;;2.93;;
1380;SDS011;684;48.342;10.096;2023-07-28T11:49:31;4.93;;;2.40;;
1380;SDS011;684;48.342;10.096;2023-07-28T11:51:58;5.90;;;3.00;;
1380;SDS011;684;48.342;10.096;2023-07-28T11:54:26;4.97;;;2.73;;
1380;SDS011;684;48.342;10.096;2023-07-28T11:56:55;5.93;;;3.30;;
1380;SDS011;684;48.342;10.096;2023-07-28T11:59:23;5.70;;;2.70;;
1380;SDS011;684;48.342;10.096;2023-07-28T12:01:53;12.23;;;3.10;;
1380;SDS011;684;48.342;10.096;2023-07-28T12:04:24;9.87;;;3.87;;
1380;SDS011;684;48.342;10.096;2023-07-28T12:07:02;14.10;;;4.50;;
1380;SDS011;684;48.342;10.096;2023-07-28T12:09:31;8.07;;;3.90;;
1380;SDS011;684;48.342;10.096;2023-07-28T12:11:59;10.03;;;3.90;;
1380;SDS011;684;48.342;10.096;2023-07-28T12:14:31;10.80;;;4.17;;
1380;SDS011;684;48.342;10.096;2023-07-28T12:16:59;9.83;;;4.17;;
1380;SDS011;684;48.342;10.096;2023-07-28T12:19:26;8.60;;;3.83;;
1380;SDS011;684;48.342;10.096;2023-07-28T12:21:53;7.23;;;3.83;;
1380;SDS011;684;48.342;10.096;2023-07-28T12:24:19;5.93;;;3.80;;
1380;SDS011;684;48.342;10.096;2023-07-28T12:26:47;6.47;;;3.40;;
1380;SDS011;684;48.342;10.096;2023-07-28T12:29:15;8.07;;;3.60;;
1380;SDS011;684;48.342;10.096;2023-07-28T12:31:42;9.00;;;3.50;;
1380;SDS011;684;48.342;10.096;2023-07-28T12:34:09;5.27;;;3.03;;
1380;SDS011;684;48.342;10.096;2023-07-28T12:36:36;6.33;;;3.33;;
1380;SDS011;684;48.342;10.096;2023-07-28T12:39:03;8.90;;;2.97;;
1380;SDS011;684;48.342;10.096;2023-07-28T12:41:31;6.33;;;3.20;;
1380;SDS011;684;48.342;10.096;2023-07-28T12:43:57;8.03;;;3.90;;
1380;SDS011;684;48.342;10.096;2023-07-28T12:46:25;5.60;;;3.30;;
1380;SDS011;684;48.342;10.096;2023-07-28T12:48:52;6.53;;;3.10;;
1380;SDS011;684;48.342;10.096;2023-07-28T12:51:19;6.10;;;3.70;;
1380;SDS011;684;48.342;10.096;2023-07-28T12:53:46;6.83;;;3.50;;
1380;SDS011;684;48.342;10.096;2023-07-28T12:56:12;6.53;;;3.43;;
1380;SDS011;684;48.342;10.096;2023-07-28T12:58:39;5.80;;;3.80;;
1380;SDS011;684;48.342;10.096;2023-07-28T13:01:06;6.53;;;3.67;;
1380;SDS011;684;48.342;10.096;2023-07-28T13:03:35;7.70;;;3.90;;
1380;SDS011;684;48.342;10.096;2023-07-28T13:06:03;6.40;;;3.10;;
1380;SDS011;684;48.342;10.096;2023-07-28T13:08:30;5.13;;;3.30;;
1380;SDS011;684;48.342;10.096;2023-07-28T13:10:56;5.90;;;3.30;;
1380;SDS011;684;48.342;10.096;2023-07-28T13:13:23;7.00;;;3.40;;
1380;SDS011;684;48.342;10.096;2023-07-28T13:15:50;8.90;;;3.67;;
1380;SDS011;684;48.342;10.096;2023-07-28T13:18:16;5.00;;;3.03;;
1380;SDS011;684;48.342;10.096;2023-07-28T13:20:44;7.40;;;2.97;;
1380;SDS011;684;48.342;10.096;2023-07-28T13:23:12;7.33;;;3.83;;
1380;SDS011;684;48.342;10.096;2023-07-28T13:25:39;6.03;;;3.10;;
1380;SDS011;684;48.342;10.096;2023-07-28T13:28:06;7.53;;;2.90;;
1380;SDS011;684;48.342;10.096;2023-07-28T13:30:32;5.67;;;3.60;;
1380;SDS011;684;48.342;10.096;2023-07-28T13:32:59;6.60;;;3.17;;
1380;SDS011;684;48.342;10.096;2023-07-28T13:35:27;9.27;;;3.03;;
1380;SDS011;684;48.342;10.096;2023-07-28T13:37:55;5.07;;;2.47;;
1380;SDS011;684;48.342;10.096;2023-07-28T13:40:21;5.00;;;2.70;;
1380;SDS011;684;48.342;10.096;2023-07-28T13:42:48;5.37;;;2.70;;
1380;SDS011;684;48.342;10.096;2023-07-28T13:45:15;5.10;;;2.83;;
1380;SDS011;684;48.342;10.096;2023-07-28T13:47:41;5.33;;;3.57;;
1380;SDS011;684;48.342;10.096;2023-07-28T13:50:08;7.37;;;3.43;;
1380;SDS011;684;48.342;10.096;2023-07-28T13:52:35;7.93;;;3.20;;
1380;SDS011;684;48.342;10.096;2023-07-28T13:55:04;5.83;;;3.70;;
1380;SDS011;684;48.342;10.096;2023-07-28T13:57:31;8.03;;;3.53;;
1380;SDS011;684;48.342;10.096;2023-07-28T13:59:57;5.90;;;3.20;;
1380;SDS011;684;48.342;10.096;2023-07-28T14:02:24;8.00;;;3.13;;
1380;SDS011;684;48.342;10.096;2023-07-28T14:04:51;5.20;;;3.40;;
1380;SDS011;684;48.342;10.096;2023-07-28T14:07:18;5.50;;;3.00;;
1380;SDS011;684;48.342;10.096;2023-07-28T14:09:44;7.67;;;2.97;;
1380;SDS011;684;48.342;10.096;2023-07-28T14:12:12;6.67;;;3.87;;
1380;SDS011;684;48.342;10.096;2023-07-28T14:14:39;5.37;;;2.97;;
1380;SDS011;684;48.342;10.096;2023-07-28T14:17:06;6.40;;;3.60;;
1380;SDS011;684;48.342;10.096;2023-07-28T14:19:32;5.27;;;3.20;;
1380;SDS011;684;48.342;10.096;2023-07-28T14:21:59;6.23;;;3.40;;
1380;SDS011;684;48.342;10.096;2023-07-28T14:24:26;7.20;;;3.20;;
1380;SDS011;684;48.342;10.096;2023-07-28T14:26:53;5.73;;;3.27;;
1380;SDS011;684;48.342;10.096;2023-07-28T14:29:21;5.00;;;2.70;;
1380;SDS011;684;48.342;10.096;2023-07-28T14:31:48;7.23;;;3.10;;
1380;SDS011;684;48.342;10.096;2023-07-28T14:34:15;4.93;;;2.60;;
1380;SDS011;684;48.342;10.096;2023-07-28T14:36:42;5.27;;;2.80;;
1380;SDS011;684;48.342;10.096;2023-07-28T14:39:08;5.40;;;3.10;;
1380;SDS011;684;48.342;10.096;2023-07-28T14:41:36;6.73;;;3.20;;
1380;SDS011;684;48.342;10.096;2023-07-28T14:44:03;4.73;;;3.03;;
1380;SDS011;684;48.342;10.096;2023-07-28T14:46:31;4.63;;;3.00;;
1380;SDS011;684;48.342;10.096;2023-07-28T14:48:58;7.17;;;4.03;;
1380;SDS011;684;48.342;10.096;2023-07-28T14:51:24;6.57;;;3.30;;
1380;SDS011;684;48.342;10.096;2023-07-28T14:53:51;5.30;;;2.53;;
1380;SDS011;684;48.342;10.096;2023-07-28T14:56:18;7.23;;;4.10;;
1380;SDS011;684;48.342;10.096;2023-07-28T14:58:49;5.93;;;2.90;;
1380;SDS011;684;48.342;10.096;2023-07-28T15:01:16;5.10;;;3.10;;
1380;SDS011;684;48.342;10.096;2023-07-28T15:03:44;5.10;;;3.07;;
1380;SDS011;684;48.342;10.096;2023-07-28T15:06:11;5.30;;;3.00;;
1380;SDS011;684;48.342;10.096;2023-07-28T15:08:38;5.67;;;2.93;;
1380;SDS011;684;48.342;10.096;2023-07-28T15:11:04;6.00;;;3.73;;
1380;SDS011;684;48.342;10.096;2023-07-28T15:13:31;5.63;;;3.40;;
1380;SDS011;684;48.342;10.096;2023-07-28T15:15:58;5.70;;;3.40;;
1380;SDS011;684;48.342;10.096;2023-07-28T15:18:24;6.33;;;3.60;;
1380;SDS011;684;48.342;10.096;2023-07-28T15:20:53;5.70;;;2.73;;